createdAt,value
2018-10-07T00:00:32.917Z,47.40
2018-10-07T00:01:32.913Z,73.90
2018-10-07T00:02:32.917Z,69.20
2018-10-07T00:03:32.913Z,82.70
2018-10-07T00:04:32.925Z,156.20
2018-10-07T00:05:32.913Z,125.60
2018-10-07T00:06:32.911Z,97.00
2018-10-07T00:07:32.933Z,58.00
2018-10-07T00:08:32.906Z,60.70
2018-10-07T00:09:32.906Z,50.30
2018-10-07T00:10:32.900Z,87.30
2018-10-07T00:11:32.900Z,58.90
2018-10-07T00:12:32.903Z,55.30
2018-10-07T00:13:32.902Z,118.50
2018-10-07T00:14:32.902Z,118.20
2018-10-07T00:15:32.901Z,101.10
2018-10-07T00:16:32.891Z,31.90
2018-10-07T00:17:33.253Z,54.80
2018-10-07T00:18:33.028Z,159.90
2018-10-07T00:19:33.672Z,95.80
2018-10-07T00:20:32.886Z,111.00
2018-10-07T00:21:32.883Z,46.60
2018-10-07T00:22:32.882Z,46.30
2018-10-07T00:23:32.897Z,63.20
2018-10-07T00:24:32.896Z,151.80
2018-10-07T00:25:32.880Z,126.60
2018-10-07T00:26:32.875Z,82.80
2018-10-07T00:27:32.876Z,65.30
2018-10-07T00:28:32.874Z,39.60
2018-10-07T00:29:32.869Z,21.30
2018-10-07T00:30:32.874Z,37.00
2018-10-07T00:31:32.869Z,33.90
2018-10-07T00:32:32.865Z,24.00
2018-10-07T00:33:32.867Z,46.10
2018-10-07T00:34:32.865Z,62.70
2018-10-07T00:35:32.896Z,39.70
2018-10-07T00:36:32.859Z,35.50
2018-10-07T00:37:32.858Z,12.60
2018-10-07T00:38:32.856Z,12.40
2018-10-07T00:39:32.855Z,45.20
2018-10-07T00:40:32.852Z,81.80
2018-10-07T00:41:32.852Z,65.30
2018-10-07T00:42:32.853Z,43.00
2018-10-07T00:43:32.847Z,33.30
2018-10-07T00:44:32.856Z,25.60
2018-10-07T00:45:32.843Z,24.40
2018-10-07T00:46:32.843Z,23.30
2018-10-07T00:47:32.843Z,105.00
2018-10-07T00:48:32.841Z,39.50
2018-10-07T00:49:32.838Z,38.90
2018-10-07T00:50:32.833Z,38.40
2018-10-07T00:51:32.832Z,98.50
2018-10-07T00:52:32.831Z,27.80
2018-10-07T00:53:32.831Z,15.30
2018-10-07T00:54:32.827Z,29.40
2018-10-07T00:55:32.828Z,20.80
2018-10-07T00:56:32.823Z,24.00
2018-10-07T00:57:32.822Z,26.00
2018-10-07T00:58:32.821Z,28.50
2018-10-07T00:59:32.820Z,11.90
2018-10-07T01:00:32.820Z,45.90
2018-10-07T01:01:32.819Z,43.10
2018-10-07T01:02:32.813Z,22.50
2018-10-07T01:03:32.817Z,44.40
2018-10-07T01:04:32.809Z,84.60
2018-10-07T01:05:32.812Z,114.20
2018-10-07T01:06:32.808Z,41.00
2018-10-07T01:07:32.807Z,109.20
2018-10-07T01:08:32.826Z,49.40
2018-10-07T01:09:32.802Z,96.80
2018-10-07T01:10:32.797Z,61.50
2018-10-07T01:11:32.800Z,33.60
2018-10-07T01:12:32.795Z,27.40
2018-10-07T01:13:32.795Z,20.50
2018-10-07T01:14:32.790Z,12.00
2018-10-07T01:15:32.788Z,10.60
2018-10-07T01:16:32.788Z,12.10
2018-10-07T01:17:32.784Z,12.20
2018-10-07T01:18:32.783Z,21.90
2018-10-07T01:19:32.785Z,27.90
2018-10-07T01:20:32.776Z,40.60
2018-10-07T01:21:32.783Z,44.20
2018-10-07T01:22:32.773Z,22.40
2018-10-07T01:23:32.775Z,25.80
2018-10-07T01:24:32.776Z,19.70
2018-10-07T01:25:32.767Z,19.90
2018-10-07T01:26:32.767Z,39.70
2018-10-07T01:27:32.766Z,87.80
2018-10-07T01:28:32.762Z,32.90
2018-10-07T01:29:32.800Z,10.70
2018-10-07T01:30:32.803Z,36.90
2018-10-07T01:31:32.757Z,11.90
2018-10-07T01:32:32.754Z,9.20
2018-10-07T01:33:32.805Z,13.20
2018-10-07T01:34:32.800Z,26.00
2018-10-07T01:35:32.750Z,144.50
2018-10-07T01:36:32.754Z,31.70
2018-10-07T01:37:32.746Z,19.00
2018-10-07T01:38:32.746Z,98.60
2018-10-07T01:39:32.740Z,45.90
2018-10-07T01:40:32.761Z,33.30
2018-10-07T01:41:32.742Z,40.50
2018-10-07T01:42:32.734Z,28.20
2018-10-07T01:43:32.733Z,19.90
2018-10-07T01:44:32.728Z,24.20
2018-10-07T01:45:32.726Z,42.60
2018-10-07T01:46:32.727Z,36.60
2018-10-07T01:47:32.726Z,11.90
2018-10-07T01:48:32.724Z,22.70
2018-10-07T01:49:32.748Z,28.50
2018-10-07T01:50:32.718Z,15.70
2018-10-07T01:51:32.717Z,13.80
2018-10-07T01:52:32.715Z,21.30
2018-10-07T01:53:32.712Z,16.10
2018-10-07T01:54:32.709Z,14.60
2018-10-07T01:55:32.713Z,13.00
2018-10-07T01:56:32.705Z,13.30
2018-10-07T01:57:32.703Z,10.30
2018-10-07T01:58:32.751Z,11.80
2018-10-07T01:59:32.758Z,12.30
2018-10-07T02:00:32.696Z,11.60
2018-10-07T02:01:32.700Z,10.20
2018-10-07T02:02:32.692Z,10.70
2018-10-07T02:03:32.690Z,11.00
2018-10-07T02:04:32.691Z,20.80
2018-10-07T02:05:32.769Z,12.80
2018-10-07T02:06:32.686Z,9.10
2018-10-07T02:07:32.685Z,19.90
2018-10-07T02:08:32.683Z,52.70
2018-10-07T02:09:32.678Z,29.10
2018-10-07T02:10:32.678Z,81.40
2018-10-07T02:11:32.676Z,15.60
2018-10-07T02:12:32.670Z,14.90
2018-10-07T02:13:32.675Z,16.00
2018-10-07T02:14:32.666Z,24.00
2018-10-07T02:15:32.672Z,10.90
2018-10-07T02:16:32.662Z,11.30
2018-10-07T02:17:32.693Z,17.00
2018-10-07T02:18:32.656Z,71.10
2018-10-07T02:19:32.659Z,27.40
2018-10-07T02:20:32.651Z,15.20
2018-10-07T02:21:32.646Z,15.80
2018-10-07T02:22:32.645Z,19.60
2018-10-07T02:23:32.643Z,22.80
2018-10-07T02:24:32.641Z,26.00
2018-10-07T02:25:32.637Z,32.60
2018-10-07T02:26:32.641Z,17.90
2018-10-07T02:27:32.633Z,17.90
2018-10-07T02:28:32.635Z,9.50
2018-10-07T02:29:32.628Z,28.30
2018-10-07T02:30:32.632Z,27.60
2018-10-07T02:31:32.627Z,24.10
2018-10-07T02:32:32.622Z,18.60
2018-10-07T02:33:32.617Z,14.20
2018-10-07T02:34:32.615Z,8.60
2018-10-07T02:35:32.614Z,8.70
2018-10-07T02:36:32.611Z,7.90
2018-10-07T02:37:32.609Z,8.00
2018-10-07T02:38:32.605Z,7.80
2018-10-07T02:39:32.604Z,8.80
2018-10-07T02:40:32.604Z,9.70
2018-10-07T02:41:32.599Z,8.40
2018-10-07T02:42:32.594Z,8.40
2018-10-07T02:43:32.594Z,8.90
2018-10-07T02:44:32.591Z,7.60
2018-10-07T02:45:32.590Z,8.80
2018-10-07T02:46:32.587Z,8.80
2018-10-07T02:47:32.588Z,8.10
2018-10-07T02:48:32.582Z,10.00
2018-10-07T02:49:32.577Z,9.90
2018-10-07T02:50:32.576Z,8.40
2018-10-07T02:51:32.573Z,9.80
2018-10-07T02:52:32.571Z,8.10
2018-10-07T02:53:32.567Z,10.90
2018-10-07T02:54:32.566Z,9.10
2018-10-07T02:55:32.562Z,10.50
2018-10-07T02:56:32.562Z,10.10
2018-10-07T02:57:32.559Z,12.60
2018-10-07T02:58:32.555Z,8.80
2018-10-07T02:59:32.554Z,9.90
2018-10-07T03:00:32.549Z,8.80
2018-10-07T03:01:32.545Z,8.20
2018-10-07T03:02:32.547Z,10.40
2018-10-07T03:03:32.548Z,11.20
2018-10-07T03:04:32.558Z,8.90
2018-10-07T03:05:32.540Z,10.20
2018-10-07T03:06:32.534Z,7.60
2018-10-07T03:07:32.533Z,8.10
2018-10-07T03:08:32.529Z,9.80
2018-10-07T03:09:32.527Z,10.70
2018-10-07T03:10:32.529Z,9.50
2018-10-07T03:11:32.528Z,8.90
2018-10-07T03:12:32.519Z,7.90
2018-10-07T03:13:32.519Z,7.60
2018-10-07T03:14:32.515Z,8.00
2018-10-07T03:15:32.512Z,8.40
2018-10-07T03:16:32.508Z,7.60
2018-10-07T03:17:32.508Z,8.60
2018-10-07T03:18:35.164Z,7.90
2018-10-07T03:19:32.502Z,9.00
2018-10-07T03:20:32.509Z,6.90
2018-10-07T03:21:32.497Z,7.00
2018-10-07T03:22:32.492Z,7.50
2018-10-07T03:23:32.492Z,8.10
2018-10-07T03:24:32.487Z,8.70
2018-10-07T03:25:32.485Z,7.80
2018-10-07T03:26:32.484Z,7.30
2018-10-07T03:27:32.479Z,12.90
2018-10-07T03:28:32.478Z,8.20
2018-10-07T03:29:32.502Z,9.10
2018-10-07T03:30:32.471Z,9.40
2018-10-07T03:31:32.472Z,7.70
2018-10-07T03:32:32.468Z,8.40
2018-10-07T03:33:32.467Z,7.90
2018-10-07T03:34:32.461Z,9.90
2018-10-07T03:35:32.462Z,8.00
2018-10-07T03:36:32.458Z,9.10
2018-10-07T03:37:32.454Z,9.00
2018-10-07T03:38:32.450Z,8.90
2018-10-07T03:39:32.446Z,8.90
2018-10-07T03:40:32.444Z,7.80
2018-10-07T03:41:32.442Z,8.50
2018-10-07T03:42:32.441Z,13.40
2018-10-07T03:43:32.439Z,9.80
2018-10-07T03:44:32.434Z,7.80
2018-10-07T03:45:32.433Z,10.00
2018-10-07T03:46:32.426Z,8.50
2018-10-07T03:47:32.425Z,7.90
2018-10-07T03:48:32.421Z,9.80
2018-10-07T03:49:32.420Z,7.80
2018-10-07T03:50:32.418Z,11.20
2018-10-07T03:51:32.412Z,7.70
2018-10-07T03:52:32.411Z,10.00
2018-10-07T03:53:32.407Z,8.60
2018-10-07T03:54:32.408Z,10.10
2018-10-07T03:55:32.401Z,9.00
2018-10-07T03:56:32.401Z,10.90
2018-10-07T03:57:32.396Z,7.60
2018-10-07T03:58:32.391Z,8.20
2018-10-07T03:59:32.391Z,9.30
2018-10-07T04:00:32.389Z,7.20
2018-10-07T04:01:32.389Z,12.20
2018-10-07T04:02:32.385Z,9.30
2018-10-07T04:03:32.383Z,7.90
2018-10-07T04:04:32.380Z,8.30
2018-10-07T04:05:32.375Z,8.10
2018-10-07T04:06:32.376Z,9.00
2018-10-07T04:07:32.368Z,10.10
2018-10-07T04:08:32.372Z,12.20
2018-10-07T04:09:32.363Z,9.20
2018-10-07T04:10:32.360Z,7.20
2018-10-07T04:11:32.356Z,9.80
2018-10-07T04:12:32.352Z,14.10
2018-10-07T04:13:32.351Z,7.40
2018-10-07T04:14:32.349Z,8.50
2018-10-07T04:15:32.346Z,10.20
2018-10-07T04:16:32.342Z,7.80
2018-10-07T04:17:32.348Z,7.80
2018-10-07T04:18:32.339Z,9.90
2018-10-07T04:19:32.334Z,7.80
2018-10-07T04:20:32.330Z,7.90
2018-10-07T04:21:32.339Z,8.50
2018-10-07T04:22:32.327Z,8.00
2018-10-07T04:23:32.321Z,7.20
2018-10-07T04:24:32.317Z,7.40
2018-10-07T04:25:32.314Z,8.60
2018-10-07T04:26:32.313Z,6.90
2018-10-07T04:27:32.313Z,8.20
2018-10-07T04:28:32.307Z,7.40
2018-10-07T04:29:32.303Z,8.50
2018-10-07T04:30:32.304Z,8.10
2018-10-07T04:31:32.301Z,9.40
2018-10-07T04:32:32.292Z,7.20
2018-10-07T04:33:32.290Z,7.80
2018-10-07T04:34:32.289Z,9.60
2018-10-07T04:35:32.287Z,8.90
2018-10-07T04:36:32.283Z,8.80
2018-10-07T04:37:32.279Z,12.50
2018-10-07T04:38:32.287Z,11.40
2018-10-07T04:39:32.286Z,10.60
2018-10-07T04:40:32.270Z,9.70
2018-10-07T04:41:32.269Z,11.40
2018-10-07T04:42:32.265Z,9.20
2018-10-07T04:43:32.262Z,8.30
2018-10-07T04:44:32.259Z,8.30
2018-10-07T04:45:32.255Z,8.20
2018-10-07T04:46:32.353Z,9.90
2018-10-07T04:47:32.251Z,8.60
2018-10-07T04:48:32.250Z,8.50
2018-10-07T04:49:32.255Z,11.00
2018-10-07T04:50:32.253Z,7.90
2018-10-07T04:51:32.243Z,8.70
2018-10-07T04:52:32.236Z,8.60
2018-10-07T04:53:32.235Z,9.00
2018-10-07T04:54:32.238Z,7.40
2018-10-07T04:55:32.226Z,9.20
2018-10-07T04:56:32.221Z,8.20
2018-10-07T04:57:32.220Z,8.30
2018-10-07T04:58:32.215Z,8.80
2018-10-07T04:59:32.221Z,9.70
2018-10-07T05:00:32.212Z,10.30
2018-10-07T05:01:32.209Z,10.20
2018-10-07T05:02:32.205Z,8.00
2018-10-07T05:03:32.201Z,8.50
2018-10-07T05:04:32.199Z,9.10
2018-10-07T05:05:32.197Z,11.20
2018-10-07T05:06:32.195Z,8.10
2018-10-07T05:07:32.194Z,9.40
2018-10-07T05:08:32.187Z,9.20
2018-10-07T05:09:32.187Z,8.10
2018-10-07T05:10:32.180Z,9.10
2018-10-07T05:11:32.186Z,9.10
2018-10-07T05:12:32.232Z,10.10
2018-10-07T05:13:32.185Z,8.90
2018-10-07T05:14:32.171Z,10.00
2018-10-07T05:15:32.170Z,8.90
2018-10-07T05:16:32.164Z,11.10
2018-10-07T05:17:32.161Z,11.30
2018-10-07T05:18:32.159Z,8.70
2018-10-07T05:19:32.158Z,10.60
2018-10-07T05:20:32.157Z,8.10
2018-10-07T05:21:32.152Z,8.60
2018-10-07T05:22:32.146Z,8.80
2018-10-07T05:23:32.145Z,9.60
2018-10-07T05:24:32.140Z,8.10
2018-10-07T05:25:32.138Z,9.20
2018-10-07T05:26:32.135Z,9.20
2018-10-07T05:27:32.134Z,8.70
2018-10-07T05:28:32.131Z,10.00
2018-10-07T05:29:32.139Z,8.40
2018-10-07T05:30:32.125Z,10.30
2018-10-07T05:31:32.131Z,11.80
2018-10-07T05:32:32.115Z,8.90
2018-10-07T05:33:32.230Z,8.40
2018-10-07T05:34:32.111Z,9.70
2018-10-07T05:35:32.108Z,10.90
2018-10-07T05:36:32.104Z,8.10
2018-10-07T05:37:32.105Z,8.30
2018-10-07T05:38:32.101Z,9.40
2018-10-07T05:39:32.105Z,10.00
2018-10-07T05:40:32.094Z,9.10
2018-10-07T05:41:32.096Z,9.00
2018-10-07T05:42:32.087Z,11.70
2018-10-07T05:43:32.086Z,12.00
2018-10-07T05:44:32.359Z,12.70
2018-10-07T05:45:32.079Z,15.60
2018-10-07T05:46:32.084Z,13.00
2018-10-07T05:47:32.075Z,15.70
2018-10-07T05:48:32.074Z,13.40
2018-10-07T05:49:32.067Z,15.10
2018-10-07T05:50:32.063Z,14.00
2018-10-07T05:51:32.059Z,15.80
2018-10-07T05:52:32.058Z,16.60
2018-10-07T05:53:32.055Z,13.90
2018-10-07T05:54:32.050Z,15.20
2018-10-07T05:55:32.086Z,13.00
2018-10-07T05:56:32.046Z,12.70
2018-10-07T05:57:32.044Z,14.80
2018-10-07T05:58:32.037Z,17.70
2018-10-07T05:59:32.034Z,13.90
2018-10-07T06:00:32.034Z,14.00
2018-10-07T06:01:32.042Z,15.60
2018-10-07T06:02:32.025Z,15.90
2018-10-07T06:03:32.023Z,13.30
2018-10-07T06:04:32.018Z,13.80
2018-10-07T06:05:32.016Z,15.00
2018-10-07T06:06:32.014Z,15.10
2018-10-07T06:07:32.008Z,16.90
2018-10-07T06:08:32.004Z,14.70
2018-10-07T06:09:32.001Z,14.20
2018-10-07T06:10:32.000Z,15.30
2018-10-07T06:11:31.996Z,12.20
2018-10-07T06:12:31.990Z,15.60
2018-10-07T06:13:31.989Z,12.60
2018-10-07T06:14:31.983Z,12.80
2018-10-07T06:15:31.983Z,12.60
2018-10-07T06:16:31.978Z,14.10
2018-10-07T06:17:31.977Z,14.10
2018-10-07T06:18:31.971Z,18.50
2018-10-07T06:19:31.969Z,18.20
2018-10-07T06:20:31.964Z,16.10
2018-10-07T06:21:32.035Z,14.80
2018-10-07T06:22:31.958Z,16.10
2018-10-07T06:23:31.954Z,15.00
2018-10-07T06:24:31.951Z,13.50
2018-10-07T06:25:31.945Z,17.60
2018-10-07T06:26:31.943Z,15.80
2018-10-07T06:27:31.940Z,14.20
2018-10-07T06:28:31.937Z,14.00
2018-10-07T06:29:31.937Z,15.60
2018-10-07T06:30:31.932Z,15.60
2018-10-07T06:31:31.925Z,17.60
2018-10-07T06:32:31.922Z,15.80
2018-10-07T06:33:31.919Z,13.20
2018-10-07T06:34:31.920Z,13.30
2018-10-07T06:35:31.921Z,16.10
2018-10-07T06:36:31.914Z,17.50
2018-10-07T06:37:31.906Z,13.00
2018-10-07T06:38:31.931Z,19.50
2018-10-07T06:39:31.900Z,14.40
2018-10-07T06:40:31.897Z,13.50
2018-10-07T06:41:31.894Z,18.30
2018-10-07T06:42:31.892Z,17.10
2018-10-07T06:43:31.887Z,18.00
2018-10-07T06:44:31.883Z,15.20
2018-10-07T06:45:31.926Z,13.40
2018-10-07T06:46:31.876Z,13.50
2018-10-07T06:47:31.876Z,13.30
2018-10-07T06:48:31.877Z,14.10
2018-10-07T06:49:31.869Z,14.00
2018-10-07T06:50:31.867Z,13.20
2018-10-07T06:51:31.863Z,13.10
2018-10-07T06:52:31.861Z,13.00
2018-10-07T06:53:31.858Z,12.70
2018-10-07T06:54:31.853Z,12.80
2018-10-07T06:55:31.853Z,13.40
2018-10-07T06:56:31.848Z,13.80
2018-10-07T06:57:31.847Z,14.70
2018-10-07T06:58:31.844Z,13.90
2018-10-07T06:59:31.848Z,15.70
2018-10-07T07:00:31.838Z,14.20
2018-10-07T07:01:31.836Z,12.80
2018-10-07T07:02:31.832Z,14.50
2018-10-07T07:03:31.833Z,13.00
2018-10-07T07:04:31.827Z,11.80
2018-10-07T07:05:31.822Z,11.90
2018-10-07T07:06:31.901Z,12.10
2018-10-07T07:07:31.836Z,13.20
2018-10-07T07:08:31.819Z,12.90
2018-10-07T07:09:31.816Z,13.50
2018-10-07T07:10:31.821Z,13.40
2018-10-07T07:11:31.808Z,15.30
2018-10-07T07:12:31.809Z,12.20
2018-10-07T07:13:31.804Z,12.00
2018-10-07T07:14:31.800Z,14.10
2018-10-07T07:15:31.800Z,13.90
2018-10-07T07:16:31.796Z,15.10
2018-10-07T07:17:31.795Z,12.20
2018-10-07T07:18:31.788Z,15.70
2018-10-07T07:19:31.789Z,11.30
2018-10-07T07:20:31.784Z,14.60
2018-10-07T07:21:31.785Z,16.20
2018-10-07T07:22:31.810Z,14.90
2018-10-07T07:23:31.780Z,14.70
2018-10-07T07:24:31.782Z,15.90
2018-10-07T07:25:31.773Z,13.10
2018-10-07T07:26:31.767Z,15.20
2018-10-07T07:27:31.767Z,14.10
2018-10-07T07:28:31.796Z,16.20
2018-10-07T07:29:31.761Z,16.90
2018-10-07T07:30:31.757Z,13.20
2018-10-07T07:31:31.829Z,14.20
2018-10-07T07:32:31.842Z,13.80
2018-10-07T07:33:31.753Z,14.80
2018-10-07T07:34:31.749Z,16.30
2018-10-07T07:35:31.745Z,12.00
2018-10-07T07:36:31.743Z,16.20
2018-10-07T07:37:31.742Z,15.90
2018-10-07T07:38:31.737Z,15.50
2018-10-07T07:39:31.737Z,13.60
2018-10-07T07:40:31.732Z,14.20
2018-10-07T07:41:31.736Z,14.80
2018-10-07T07:42:31.809Z,12.90
2018-10-07T07:43:31.727Z,55.50
2018-10-07T07:44:31.724Z,19.40
2018-10-07T07:45:31.722Z,18.80
2018-10-07T07:46:31.720Z,11.30
2018-10-07T07:47:31.716Z,13.10
2018-10-07T07:48:31.714Z,14.70
2018-10-07T07:49:31.719Z,15.50
2018-10-07T07:50:31.712Z,14.30
2018-10-07T07:51:31.707Z,14.80
2018-10-07T07:52:31.706Z,14.60
2018-10-07T07:53:31.706Z,12.30
2018-10-07T07:54:31.705Z,14.60
2018-10-07T07:55:31.699Z,12.00
2018-10-07T07:56:31.705Z,14.90
2018-10-07T07:57:31.696Z,16.20
2018-10-07T07:58:31.692Z,13.70
2018-10-07T07:59:31.692Z,13.00
2018-10-07T08:00:31.689Z,12.70
2018-10-07T08:01:31.687Z,12.50
2018-10-07T08:02:31.685Z,14.30
2018-10-07T08:03:31.683Z,12.50
2018-10-07T08:04:31.683Z,15.60
2018-10-07T08:05:31.683Z,12.20
2018-10-07T08:06:31.680Z,11.90
2018-10-07T08:07:31.677Z,13.20
2018-10-07T08:08:31.674Z,16.20
2018-10-07T08:09:31.671Z,14.80
2018-10-07T08:10:31.671Z,15.20
2018-10-07T08:11:31.666Z,13.80
2018-10-07T08:12:31.666Z,12.10
2018-10-07T08:13:31.662Z,12.50
2018-10-07T08:14:31.662Z,14.50
2018-10-07T08:15:31.659Z,13.90
2018-10-07T08:16:31.658Z,14.30
2018-10-07T08:17:31.687Z,14.50
2018-10-07T08:18:31.656Z,13.10
2018-10-07T08:19:31.657Z,16.70
2018-10-07T08:20:31.655Z,13.20
2018-10-07T08:21:31.648Z,12.90
2018-10-07T08:22:31.649Z,13.50
2018-10-07T08:23:31.720Z,16.40
2018-10-07T08:24:31.642Z,13.40
2018-10-07T08:25:31.652Z,15.30
2018-10-07T08:26:31.642Z,12.70
2018-10-07T08:27:31.651Z,12.80
2018-10-07T08:28:31.642Z,15.50
2018-10-07T08:29:31.708Z,13.80
2018-10-07T08:30:31.633Z,15.10
2018-10-07T08:31:31.633Z,14.20
2018-10-07T08:32:31.654Z,14.50
2018-10-07T08:33:31.657Z,17.40
2018-10-07T08:34:31.629Z,16.40
2018-10-07T08:35:31.627Z,14.50
2018-10-07T08:36:33.392Z,12.80
2018-10-07T08:37:31.700Z,13.80
2018-10-07T08:38:31.700Z,14.90
2018-10-07T08:39:31.620Z,15.10
2018-10-07T08:40:31.708Z,14.90
2018-10-07T08:41:31.663Z,15.20
2018-10-07T08:42:31.749Z,16.30
2018-10-07T08:43:31.715Z,13.10
2018-10-07T08:44:31.673Z,16.70
2018-10-07T08:45:32.671Z,15.50
2018-10-07T08:46:31.616Z,16.40
2018-10-07T08:47:31.606Z,16.60
2018-10-07T08:48:31.603Z,14.30
2018-10-07T08:49:31.601Z,16.90
2018-10-07T08:50:31.601Z,19.40
2018-10-07T08:51:31.601Z,15.10
2018-10-07T08:52:31.600Z,18.70
2018-10-07T08:53:31.607Z,14.60
2018-10-07T08:54:31.596Z,16.10
2018-10-07T08:55:31.593Z,17.40
2018-10-07T08:56:31.649Z,18.30
2018-10-07T08:57:31.589Z,18.00
2018-10-07T08:58:31.591Z,22.50
2018-10-07T08:59:31.584Z,19.10
2018-10-07T09:00:31.597Z,21.40
2018-10-07T09:01:31.580Z,25.40
2018-10-07T09:02:31.586Z,25.80
2018-10-07T09:03:31.601Z,22.40
2018-10-07T09:04:31.576Z,22.80
2018-10-07T09:05:31.573Z,29.60
2018-10-07T09:06:31.575Z,26.80
2018-10-07T09:07:31.572Z,24.10
2018-10-07T09:08:31.568Z,28.50
2018-10-07T09:09:31.565Z,28.40
2018-10-07T09:10:31.564Z,27.30
2018-10-07T09:11:31.569Z,27.90
2018-10-07T09:12:31.566Z,28.40
2018-10-07T09:13:31.561Z,35.70
2018-10-07T09:14:32.189Z,30.50
2018-10-07T09:15:31.558Z,36.20
2018-10-07T09:16:31.556Z,37.70
2018-10-07T09:17:31.554Z,38.10
2018-10-07T09:18:31.552Z,39.80
2018-10-07T09:19:31.548Z,39.80
2018-10-07T09:20:31.549Z,38.00
2018-10-07T09:21:31.547Z,42.50
2018-10-07T09:22:31.544Z,42.60
2018-10-07T09:23:31.541Z,41.00
2018-10-07T09:24:31.551Z,44.60
2018-10-07T09:25:31.543Z,47.70
2018-10-07T09:26:31.537Z,47.30
2018-10-07T09:27:31.644Z,49.30
2018-10-07T09:28:31.531Z,55.50
2018-10-07T09:29:31.533Z,60.60
2018-10-07T09:30:31.531Z,60.60
2018-10-07T09:31:31.534Z,71.00
2018-10-07T09:32:31.611Z,68.10
2018-10-07T09:33:31.548Z,68.50
2018-10-07T09:34:31.535Z,73.40
2018-10-07T09:35:31.522Z,65.40
2018-10-07T09:36:31.521Z,69.10
2018-10-07T09:37:31.520Z,80.00
2018-10-07T09:38:31.523Z,70.10
2018-10-07T09:39:31.567Z,65.20
2018-10-07T09:40:31.520Z,73.00
2018-10-07T09:41:31.511Z,74.90
2018-10-07T09:42:31.556Z,67.60
2018-10-07T09:43:31.511Z,73.70
2018-10-07T09:44:31.508Z,75.90
2018-10-07T09:45:31.507Z,81.60
2018-10-07T09:46:31.507Z,76.30
2018-10-07T09:47:31.504Z,77.20
2018-10-07T09:48:31.503Z,75.70
2018-10-07T09:49:31.498Z,72.70
2018-10-07T09:50:31.502Z,75.90
2018-10-07T09:51:31.503Z,73.90
2018-10-07T09:52:31.494Z,76.40
2018-10-07T09:53:31.495Z,76.90
2018-10-07T09:54:31.494Z,73.70
2018-10-07T09:55:31.586Z,81.80
2018-10-07T09:56:31.488Z,78.50
2018-10-07T09:57:31.489Z,87.60
2018-10-07T09:58:31.511Z,79.80
2018-10-07T09:59:31.487Z,78.10
2018-10-07T10:00:31.484Z,76.00
2018-10-07T10:01:31.490Z,74.60
2018-10-07T10:02:31.482Z,77.30
2018-10-07T10:03:31.479Z,73.20
2018-10-07T10:04:31.503Z,73.70
2018-10-07T10:05:31.476Z,75.20
2018-10-07T10:06:31.474Z,77.80
2018-10-07T10:07:31.473Z,82.00
2018-10-07T10:08:31.470Z,71.90
2018-10-07T10:09:31.470Z,71.70
2018-10-07T10:10:31.468Z,70.60
2018-10-07T10:11:31.468Z,69.40
2018-10-07T10:12:31.463Z,75.50
2018-10-07T10:13:31.468Z,74.10
2018-10-07T10:14:31.465Z,72.10
2018-10-07T10:15:31.479Z,72.40
2018-10-07T10:16:31.460Z,66.50
2018-10-07T10:17:31.498Z,74.10
2018-10-07T10:18:33.258Z,72.70
2018-10-07T10:19:31.570Z,71.30
2018-10-07T10:20:31.455Z,70.60
2018-10-07T10:21:31.468Z,69.50
2018-10-07T10:22:31.451Z,67.70
2018-10-07T10:23:31.454Z,70.40
2018-10-07T10:24:31.447Z,69.50
2018-10-07T10:25:31.497Z,73.30
2018-10-07T10:26:31.583Z,70.00
2018-10-07T10:27:31.507Z,67.80
2018-10-07T10:28:31.469Z,71.80
2018-10-07T10:29:31.512Z,71.50
2018-10-07T10:30:31.441Z,67.30
2018-10-07T10:31:31.464Z,69.30
2018-10-07T10:32:31.438Z,73.20
2018-10-07T10:33:31.460Z,71.90
2018-10-07T10:34:31.523Z,75.20
2018-10-07T10:35:31.437Z,64.20
2018-10-07T10:36:31.432Z,66.30
2018-10-07T10:37:31.434Z,59.90
2018-10-07T10:38:31.431Z,60.70
2018-10-07T10:39:31.505Z,49.00
2018-10-07T10:40:31.433Z,43.30
2018-10-07T10:41:31.556Z,42.10
2018-10-07T10:42:31.428Z,40.90
2018-10-07T10:43:31.429Z,34.10
2018-10-07T10:44:31.443Z,28.10
2018-10-07T10:45:31.423Z,24.80
2018-10-07T10:46:31.421Z,24.90
2018-10-07T10:47:31.464Z,22.70
2018-10-07T10:48:31.420Z,21.20
2018-10-07T10:49:31.422Z,20.10
2018-10-07T10:50:31.418Z,20.60
2018-10-07T10:51:31.416Z,17.80
2018-10-07T10:52:31.412Z,18.20
2018-10-07T10:53:31.410Z,15.40
2018-10-07T10:54:31.414Z,15.50
2018-10-07T10:55:31.408Z,15.00
2018-10-07T10:56:31.407Z,16.60
2018-10-07T10:57:31.404Z,11.80
2018-10-07T10:58:31.402Z,12.60
2018-10-07T10:59:31.401Z,12.50
2018-10-07T11:00:31.400Z,12.90
2018-10-07T11:01:31.396Z,15.90
2018-10-07T11:02:31.397Z,13.30
2018-10-07T11:03:31.395Z,15.30
2018-10-07T11:04:31.455Z,11.30
2018-10-07T11:05:31.392Z,10.10
2018-10-07T11:06:31.389Z,11.30
2018-10-07T11:07:31.387Z,14.60
2018-10-07T11:08:31.380Z,9.70
2018-10-07T11:09:31.379Z,11.10
2018-10-07T11:10:31.379Z,9.90
2018-10-07T11:11:31.387Z,13.20
2018-10-07T11:12:31.372Z,10.00
2018-10-07T11:13:31.369Z,11.20
2018-10-07T11:14:31.371Z,11.90
2018-10-07T11:15:31.376Z,30.80
2018-10-07T11:16:31.365Z,11.20
2018-10-07T11:17:31.361Z,16.40
2018-10-07T11:18:31.362Z,13.80
2018-10-07T11:19:31.385Z,14.70
2018-10-07T11:20:31.352Z,13.10
2018-10-07T11:21:31.351Z,13.80
2018-10-07T11:22:31.348Z,12.30
2018-10-07T11:23:31.350Z,10.60
2018-10-07T11:24:31.343Z,13.50
2018-10-07T11:25:31.339Z,13.20
2018-10-07T11:26:31.340Z,9.40
2018-10-07T11:27:31.337Z,11.30
2018-10-07T11:28:31.333Z,12.60
2018-10-07T11:29:31.328Z,14.60
2018-10-07T11:30:31.329Z,12.90
2018-10-07T11:31:31.324Z,15.60
2018-10-07T11:32:31.323Z,12.80
2018-10-07T11:33:31.319Z,14.30
2018-10-07T11:34:31.327Z,12.60
2018-10-07T11:35:31.313Z,13.80
2018-10-07T11:36:31.309Z,13.70
2018-10-07T11:37:31.309Z,12.70
2018-10-07T11:38:31.305Z,13.90
2018-10-07T11:39:31.301Z,14.10
2018-10-07T11:40:31.300Z,13.50
2018-10-07T11:41:31.298Z,13.90
2018-10-07T11:42:31.295Z,11.70
2018-10-07T11:43:31.291Z,10.30
2018-10-07T11:44:31.290Z,10.30
2018-10-07T11:45:31.285Z,10.30
2018-10-07T11:46:31.282Z,6.50
2018-10-07T11:47:31.281Z,6.10
2018-10-07T11:48:31.279Z,8.30
2018-10-07T11:49:31.277Z,6.60
2018-10-07T11:50:31.274Z,5.80
2018-10-07T11:51:31.270Z,8.60
2018-10-07T11:52:31.265Z,6.00
2018-10-07T11:53:31.265Z,6.80
2018-10-07T11:54:31.260Z,4.90
2018-10-07T11:55:31.260Z,6.10
2018-10-07T11:56:31.262Z,6.60
2018-10-07T11:57:31.255Z,11.00
2018-10-07T11:58:31.260Z,7.40
2018-10-07T11:59:31.249Z,8.00
2018-10-07T12:00:31.244Z,8.00
2018-10-07T12:01:31.241Z,8.20
2018-10-07T12:02:31.282Z,10.50
2018-10-07T12:03:31.236Z,11.20
2018-10-07T12:04:31.235Z,9.20
2018-10-07T12:05:31.233Z,13.20
2018-10-07T12:06:31.227Z,12.90
2018-10-07T12:07:31.225Z,11.20
2018-10-07T12:08:31.220Z,10.80
2018-10-07T12:09:31.222Z,11.60
2018-10-07T12:10:31.215Z,13.00
2018-10-07T12:11:31.217Z,11.90
2018-10-07T12:12:31.212Z,12.40
2018-10-07T12:13:31.207Z,9.00
2018-10-07T12:14:31.203Z,11.30
2018-10-07T12:15:31.202Z,13.60
2018-10-07T12:16:31.372Z,12.60
2018-10-07T12:17:31.195Z,13.20
2018-10-07T12:18:31.193Z,11.80
2018-10-07T12:19:31.190Z,12.00
2018-10-07T12:20:31.187Z,10.00
2018-10-07T12:21:31.187Z,11.70
2018-10-07T12:22:31.183Z,11.80
2018-10-07T12:23:31.177Z,9.50
2018-10-07T12:24:31.174Z,11.60
2018-10-07T12:25:31.174Z,11.70
2018-10-07T12:26:31.169Z,10.90
2018-10-07T12:27:31.173Z,10.10
2018-10-07T12:28:31.166Z,11.20
2018-10-07T12:29:31.163Z,11.80
2018-10-07T12:30:31.159Z,8.60
2018-10-07T12:31:31.160Z,9.50
2018-10-07T12:32:31.151Z,10.80
2018-10-07T12:33:31.156Z,9.20
2018-10-07T12:34:31.149Z,11.10
2018-10-07T12:35:31.151Z,9.60
2018-10-07T12:36:31.149Z,9.80
2018-10-07T12:37:31.139Z,13.10
2018-10-07T12:38:31.135Z,9.70
2018-10-07T12:39:31.133Z,10.80
2018-10-07T12:40:31.130Z,12.40
2018-10-07T12:41:31.126Z,10.50
2018-10-07T12:42:31.185Z,11.90
2018-10-07T12:43:31.122Z,10.80
2018-10-07T12:44:31.119Z,12.10
2018-10-07T12:45:31.115Z,13.30
2018-10-07T12:46:31.136Z,15.50
2018-10-07T12:47:31.120Z,13.40
2018-10-07T12:48:31.130Z,11.90
2018-10-07T12:49:31.103Z,14.00
2018-10-07T12:50:31.121Z,12.40
2018-10-07T12:51:31.097Z,14.80
2018-10-07T12:52:31.097Z,13.60
2018-10-07T12:53:31.091Z,12.10
2018-10-07T12:54:31.119Z,15.80
2018-10-07T12:55:31.084Z,13.00
2018-10-07T12:56:31.081Z,14.70
2018-10-07T12:57:31.078Z,15.50
2018-10-07T12:58:31.074Z,14.20